createdAt,value
2022-11-29T00:02:18.671Z,17.13
2022-11-29T00:04:49.519Z,16.98
2022-11-29T00:07:18.602Z,17.60
2022-11-29T00:09:47.907Z,17.40
2022-11-29T00:12:17.799Z,16.98
2022-11-29T00:14:47.335Z,15.45
2022-11-29T00:17:16.598Z,16.42
2022-11-29T00:19:46.180Z,15.88
2022-11-29T00:22:16.733Z,16.65
2022-11-29T00:24:46.285Z,16.50
2022-11-29T00:27:15.564Z,16.30
2022-11-29T00:29:44.933Z,17.52
2022-11-29T00:32:13.958Z,17.27
2022-11-29T00:34:43.546Z,16.83
2022-11-29T00:37:12.911Z,14.50
2022-11-29T00:39:43.685Z,19.02
2022-11-29T00:42:12.682Z,16.25
2022-11-29T00:44:42.281Z,17.33
2022-11-29T00:47:11.843Z,15.40
2022-11-29T00:49:42.028Z,17.20
2022-11-29T00:52:11.118Z,16.63
2022-11-29T00:54:42.228Z,16.08
2022-11-29T00:57:11.604Z,17.15
2022-11-29T00:59:41.000Z,17.85
2022-11-29T01:02:10.299Z,15.30
2022-11-29T01:04:39.696Z,15.48
2022-11-29T01:07:08.721Z,14.70
2022-11-29T01:09:38.039Z,17.02
2022-11-29T01:12:09.050Z,14.98
2022-11-29T01:14:38.381Z,16.30
2022-11-29T01:17:07.551Z,15.57
2022-11-29T01:19:39.645Z,14.35
2022-11-29T01:22:08.887Z,14.00
2022-11-29T01:24:38.236Z,16.50
2022-11-29T01:27:08.680Z,12.60
2022-11-29T01:29:38.143Z,14.40
2022-11-29T01:32:07.365Z,14.15
2022-11-29T01:34:36.627Z,12.90
2022-11-29T01:37:05.878Z,12.30
2022-11-29T01:39:35.277Z,13.15
2022-11-29T01:42:04.680Z,13.55
2022-11-29T01:45:14.996Z,14.05
2022-11-29T01:47:47.646Z,14.75
2022-11-29T01:50:17.536Z,12.98
2022-11-29T01:52:48.563Z,12.70
2022-11-29T01:55:18.801Z,12.90
2022-11-29T01:57:48.166Z,14.18
2022-11-29T02:00:21.912Z,13.30
2022-11-29T02:02:56.195Z,14.68
2022-11-29T02:05:26.458Z,13.07
2022-11-29T02:08:00.109Z,12.98
2022-11-29T02:10:45.819Z,13.68
2022-11-29T02:13:26.383Z,12.30
2022-11-29T02:16:04.492Z,12.90
2022-11-29T02:18:44.840Z,13.32
2022-11-29T02:21:32.608Z,12.05
2022-11-29T02:24:46.761Z,13.45
2022-11-29T02:27:51.090Z,12.52
2022-11-29T02:30:38.493Z,11.77
2022-11-29T02:33:29.480Z,12.57
2022-11-29T02:36:44.037Z,13.20
2022-11-29T02:39:48.065Z,13.07
2022-11-29T02:42:54.087Z,14.57
2022-11-29T02:45:40.415Z,13.32
2022-11-29T02:48:22.099Z,13.80
2022-11-29T02:50:58.821Z,12.65
2022-11-29T02:53:35.055Z,11.95
2022-11-29T02:56:13.356Z,12.20
2022-11-29T02:58:49.392Z,12.07
2022-11-29T03:01:25.699Z,12.05
2022-11-29T03:04:03.728Z,12.38
2022-11-29T03:06:40.789Z,10.60
2022-11-29T03:09:18.989Z,11.95
2022-11-29T03:11:55.560Z,11.57
2022-11-29T03:14:27.871Z,11.23
2022-11-29T03:17:06.280Z,10.88
2022-11-29T03:20:01.234Z,10.93
2022-11-29T03:22:43.079Z,11.02
2022-11-29T03:25:19.076Z,10.93
2022-11-29T03:27:54.519Z,10.32
2022-11-29T03:35:35.855Z,10.60
2022-11-29T03:38:22.079Z,9.70
2022-11-29T03:40:58.714Z,9.63
2022-11-29T03:43:34.857Z,9.65
2022-11-29T03:46:07.200Z,10.93
2022-11-29T03:48:42.066Z,11.65
2022-11-29T03:51:19.921Z,10.00
2022-11-29T03:53:59.562Z,11.52
2022-11-29T03:56:31.941Z,11.32
2022-11-29T03:59:22.888Z,12.00
2022-11-29T04:02:27.302Z,10.75
2022-11-29T04:05:25.124Z,11.05
2022-11-29T04:08:21.967Z,10.40
2022-11-29T04:11:28.660Z,10.75
2022-11-29T04:14:28.626Z,10.23
2022-11-29T04:17:38.544Z,12.60
2022-11-29T04:20:58.746Z,10.98
2022-11-29T04:23:56.721Z,11.15
2022-11-29T04:26:55.898Z,12.02
2022-11-29T04:29:56.452Z,11.48
2022-11-29T04:32:50.064Z,10.88
2022-11-29T04:35:39.734Z,11.55
2022-11-29T04:38:46.195Z,10.13
2022-11-29T04:41:55.632Z,10.68
2022-11-29T04:44:43.353Z,10.30
2022-11-29T04:47:38.464Z,11.43
2022-11-29T04:50:19.915Z,11.07
2022-11-29T04:53:05.704Z,9.93
2022-11-29T04:55:44.995Z,11.60
2022-11-29T04:58:23.881Z,11.00
2022-11-29T05:01:11.032Z,12.60
2022-11-29T05:03:46.886Z,12.02
2022-11-29T05:06:27.057Z,11.43
2022-11-29T05:09:09.171Z,10.63
2022-11-29T05:11:51.287Z,10.85
2022-11-29T05:14:36.201Z,9.65
2022-11-29T05:17:25.866Z,11.00
2022-11-29T05:20:10.522Z,11.55
2022-11-29T05:22:50.122Z,11.55
2022-11-29T05:25:41.250Z,12.60
2022-11-29T05:28:21.369Z,12.68
2022-11-29T05:31:28.881Z,12.70
2022-11-29T05:34:37.341Z,12.55
2022-11-29T05:37:16.375Z,13.32
2022-11-29T05:39:58.795Z,11.98
2022-11-29T05:42:57.509Z,11.38
2022-11-29T05:45:31.047Z,12.35
2022-11-29T05:48:08.357Z,12.85
2022-11-29T05:50:43.023Z,12.07
2022-11-29T05:53:22.933Z,13.02
2022-11-29T05:56:03.764Z,13.50
2022-11-29T05:58:44.470Z,11.32
2022-11-29T06:01:22.243Z,13.45
2022-11-29T06:04:02.966Z,12.32
2022-11-29T06:06:40.467Z,12.70
2022-11-29T06:09:18.997Z,12.13
2022-11-29T06:11:51.588Z,13.20
2022-11-29T06:14:36.957Z,13.35
2022-11-29T06:17:38.985Z,13.20
2022-11-29T06:20:39.896Z,11.93
2022-11-29T06:23:25.283Z,14.25
2022-11-29T06:26:07.291Z,12.52
2022-11-29T06:28:56.229Z,11.65
2022-11-29T06:31:30.226Z,12.73
2022-11-29T06:34:08.659Z,11.45
2022-11-29T06:36:46.140Z,12.07
2022-11-29T06:39:15.931Z,12.18
2022-11-29T06:41:47.036Z,11.43
2022-11-29T06:44:16.800Z,12.27
2022-11-29T06:46:48.939Z,12.88
2022-11-29T06:49:25.077Z,13.35
2022-11-29T06:52:08.212Z,13.05
2022-11-29T06:54:51.196Z,12.73
2022-11-29T06:57:31.659Z,12.98
2022-11-29T07:00:11.711Z,13.05
2022-11-29T07:03:07.751Z,15.10
2022-11-29T07:05:37.650Z,12.73
2022-11-29T07:08:15.038Z,13.18
2022-11-29T07:10:45.274Z,13.52
2022-11-29T07:13:15.502Z,13.45
2022-11-29T07:15:49.890Z,12.73
2022-11-29T07:18:29.133Z,12.50
2022-11-29T07:21:07.977Z,12.13
2022-11-29T07:23:45.251Z,12.90
2022-11-29T07:26:26.251Z,14.68
2022-11-29T07:29:12.374Z,13.05
2022-11-29T07:31:50.807Z,13.70
2022-11-29T07:34:29.772Z,12.95
2022-11-29T07:37:05.977Z,11.65
2022-11-29T07:39:46.201Z,13.57
2022-11-29T07:42:24.475Z,12.95
2022-11-29T07:45:03.088Z,14.45
2022-11-29T07:47:35.696Z,13.23
2022-11-29T07:50:06.192Z,13.35
2022-11-29T07:52:35.618Z,13.00
2022-11-29T07:55:07.287Z,13.73
2022-11-29T07:57:36.990Z,14.52
2022-11-29T08:05:05.114Z,13.25
2022-11-29T08:07:36.909Z,14.93
2022-11-29T08:10:10.561Z,15.27
2022-11-29T08:12:44.911Z,13.75
2022-11-29T08:15:14.514Z,15.18
2022-11-29T08:17:43.777Z,13.57
2022-11-29T08:20:14.929Z,13.80
2022-11-29T08:22:45.037Z,13.32
2022-11-29T08:25:16.296Z,13.63
2022-11-29T08:27:45.369Z,13.82
2022-11-29T08:30:15.199Z,13.38
2022-11-29T08:32:48.526Z,12.80
2022-11-29T08:35:22.168Z,12.68
2022-11-29T08:37:52.144Z,12.20
2022-11-29T08:40:24.202Z,14.60
2022-11-29T08:42:53.653Z,13.18
2022-11-29T08:45:23.199Z,13.50
2022-11-29T08:47:52.481Z,14.48
2022-11-29T08:50:22.577Z,14.02
2022-11-29T08:53:09.836Z,13.48
2022-11-29T08:55:43.072Z,13.68
2022-11-29T08:58:15.428Z,13.90
2022-11-29T09:00:47.178Z,14.20
2022-11-29T09:03:34.027Z,13.73
2022-11-29T09:06:12.020Z,16.35
2022-11-29T09:08:43.611Z,13.65
2022-11-29T09:11:16.034Z,15.13
2022-11-29T09:13:47.571Z,16.00
2022-11-29T09:16:19.070Z,15.20
2022-11-29T09:18:51.830Z,13.80
2022-11-29T09:21:21.958Z,14.45
2022-11-29T09:23:57.749Z,15.52
2022-11-29T09:26:30.096Z,15.43
2022-11-29T09:29:01.381Z,15.88
2022-11-29T09:31:32.115Z,15.98
2022-11-29T09:34:01.745Z,15.15
2022-11-29T09:36:32.108Z,15.48
2022-11-29T09:39:03.361Z,15.43
2022-11-29T09:41:58.405Z,15.25
2022-11-29T09:44:36.041Z,12.93
2022-11-29T09:47:18.412Z,16.27
2022-11-29T09:49:57.683Z,15.93
2022-11-29T09:52:37.740Z,14.43
2022-11-29T09:55:23.970Z,15.32
2022-11-29T09:57:56.344Z,15.93
2022-11-29T10:00:26.123Z,18.08
2022-11-29T10:02:59.638Z,16.10
2022-11-29T10:05:33.763Z,17.27
2022-11-29T10:08:09.610Z,16.02
2022-11-29T10:10:43.281Z,16.15
2022-11-29T10:13:21.398Z,17.38
2022-11-29T10:15:55.519Z,17.83
2022-11-29T10:18:27.256Z,17.48
2022-11-29T10:21:04.168Z,18.67
2022-11-29T10:23:37.460Z,18.92
2022-11-29T10:26:08.157Z,16.65
2022-11-29T10:28:44.939Z,17.67
2022-11-29T10:31:21.316Z,19.08
2022-11-29T10:33:51.712Z,18.77
2022-11-29T10:36:27.791Z,20.45
2022-11-29T10:39:00.656Z,19.33
2022-11-29T10:41:29.956Z,17.92
2022-11-29T10:44:02.344Z,16.63
2022-11-29T10:46:34.224Z,21.02
2022-11-29T10:49:06.209Z,19.00
2022-11-29T10:51:35.962Z,18.60
2022-11-29T10:54:21.625Z,17.15
2022-11-29T10:56:50.996Z,18.97
2022-11-29T10:59:27.155Z,17.67
2022-11-29T11:01:56.880Z,17.38
2022-11-29T11:04:32.474Z,17.13
2022-11-29T11:07:03.549Z,17.60
2022-11-29T11:09:39.179Z,18.95
2022-11-29T11:12:19.906Z,15.63
2022-11-29T11:14:51.481Z,18.00
2022-11-29T11:17:27.100Z,18.23
2022-11-29T11:22:28.876Z,14.82
2022-11-29T11:25:01.183Z,18.45
2022-11-29T11:27:32.621Z,18.33
2022-11-29T11:30:07.555Z,18.08
2022-11-29T11:32:36.759Z,15.55
2022-11-29T11:35:24.226Z,16.48
2022-11-29T11:37:58.407Z,16.52
2022-11-29T11:40:30.842Z,17.35
2022-11-29T11:43:03.035Z,15.18
2022-11-29T11:45:38.794Z,16.58
2022-11-29T11:48:15.330Z,17.50
2022-11-29T11:50:46.765Z,16.70
2022-11-29T11:53:23.143Z,16.27
2022-11-29T11:56:00.125Z,18.15
2022-11-29T11:58:30.964Z,16.98
2022-11-29T12:01:17.299Z,17.23
2022-11-29T12:03:53.178Z,16.50
2022-11-29T12:06:30.031Z,17.52
2022-11-29T12:09:05.852Z,17.50
2022-11-29T12:11:42.663Z,16.85
2022-11-29T12:14:23.443Z,16.13
2022-11-29T12:17:05.201Z,17.02
2022-11-29T12:19:41.417Z,21.58
2022-11-29T12:22:19.963Z,19.20
2022-11-29T12:24:58.310Z,19.33
2022-11-29T12:27:27.951Z,18.60
2022-11-29T12:29:57.544Z,17.17
2022-11-29T12:32:51.264Z,16.00
2022-11-29T12:35:48.332Z,15.65
2022-11-29T12:38:36.408Z,15.63
2022-11-29T12:41:19.509Z,18.30
2022-11-29T12:44:04.101Z,17.30
2022-11-29T12:46:35.433Z,18.65
2022-11-29T12:49:17.692Z,17.40
2022-11-29T12:51:54.689Z,23.40
2022-11-29T12:54:44.191Z,22.27
2022-11-29T12:57:22.487Z,19.30
2022-11-29T13:00:08.025Z,20.30
2022-11-29T13:02:53.608Z,20.77
2022-11-29T13:05:42.627Z,22.10
2022-11-29T13:08:34.221Z,21.50
2022-11-29T13:11:15.414Z,21.58
2022-11-29T13:13:47.760Z,19.52
2022-11-29T13:16:31.973Z,20.50
2022-11-29T13:19:08.150Z,20.95
2022-11-29T13:21:47.525Z,22.25
2022-11-29T13:24:25.130Z,19.42
2022-11-29T13:26:55.477Z,22.58
2022-11-29T13:29:25.354Z,20.95
2022-11-29T13:31:55.022Z,23.10
2022-11-29T13:34:30.223Z,21.90
2022-11-29T13:37:08.837Z,21.50
2022-11-29T13:39:52.030Z,21.33
2022-11-29T13:42:27.086Z,21.48
2022-11-29T13:45:05.532Z,21.27
2022-11-29T13:47:48.491Z,22.33
2022-11-29T13:50:42.226Z,26.48
2022-11-29T13:53:18.660Z,24.67
2022-11-29T13:55:50.056Z,24.58
2022-11-29T13:58:36.369Z,23.52
2022-11-29T14:01:09.358Z,23.90
2022-11-29T14:03:41.606Z,22.17
2022-11-29T14:06:18.469Z,22.38
2022-11-29T14:09:24.810Z,21.73
2022-11-29T14:12:01.489Z,21.43
2022-11-29T14:14:35.942Z,21.85
2022-11-29T14:17:07.176Z,23.27
2022-11-29T14:19:38.207Z,23.73
2022-11-29T14:22:22.924Z,22.73
2022-11-29T14:25:16.349Z,24.65
2022-11-29T14:28:25.126Z,25.42
2022-11-29T14:30:57.117Z,24.90
2022-11-29T14:33:45.249Z,22.92
2022-11-29T14:36:34.360Z,23.25
2022-11-29T14:39:25.220Z,22.30
2022-11-29T14:42:04.875Z,22.35
2022-11-29T14:44:35.510Z,21.65
2022-11-29T14:47:08.281Z,21.40
2022-11-29T14:49:43.620Z,17.80
2022-11-29T14:52:22.707Z,20.83
2022-11-29T14:55:01.110Z,19.73
2022-11-29T14:58:13.055Z,18.80
2022-11-29T15:01:09.740Z,19.92
2022-11-29T15:03:47.541Z,20.55
2022-11-29T15:06:26.019Z,23.30
2022-11-29T15:09:04.755Z,19.60
2022-11-29T15:11:51.019Z,20.52
2022-11-29T15:14:30.461Z,21.42
2022-11-29T15:17:18.281Z,25.23
2022-11-29T15:20:15.971Z,24.70
2022-11-29T15:22:52.351Z,23.30
2022-11-29T15:25:23.703Z,26.85
2022-11-29T15:27:54.590Z,31.67
2022-11-29T15:30:32.047Z,26.98
2022-11-29T15:33:06.548Z,34.22
2022-11-29T15:35:37.573Z,30.40
2022-11-29T15:38:06.565Z,32.80
2022-11-29T15:40:37.287Z,24.33
2022-11-29T15:43:17.993Z,19.38
2022-11-29T15:45:52.256Z,20.88
2022-11-29T15:48:24.544Z,20.50
2022-11-29T15:51:06.103Z,19.23
2022-11-29T15:53:40.873Z,22.02
2022-11-29T15:56:16.036Z,20.55
2022-11-29T15:58:46.962Z,21.97
2022-11-29T16:01:21.609Z,19.75
2022-11-29T16:03:54.659Z,21.33
2022-11-29T16:06:30.566Z,24.55
2022-11-29T16:09:00.701Z,25.05
2022-11-29T16:11:32.898Z,22.75
2022-11-29T16:14:14.077Z,19.58
2022-11-29T16:16:46.137Z,21.52
2022-11-29T16:19:27.022Z,21.77
2022-11-29T16:22:09.537Z,21.08
2022-11-29T16:24:40.010Z,20.35
2022-11-29T16:27:09.929Z,20.02
2022-11-29T16:29:46.375Z,19.33
2022-11-29T16:32:26.108Z,17.63
2022-11-29T16:34:58.798Z,18.92
2022-11-29T16:37:32.638Z,18.25
2022-11-29T16:40:03.117Z,18.73
2022-11-29T16:42:34.477Z,17.75
2022-11-29T16:45:27.057Z,17.90
2022-11-29T16:47:59.678Z,17.48
2022-11-29T16:50:31.383Z,19.90
2022-11-29T16:53:34.987Z,19.35
2022-11-29T16:56:04.391Z,19.10
2022-11-29T16:58:38.759Z,20.98
2022-11-29T17:01:18.389Z,19.88
2022-11-29T17:03:47.963Z,19.10
2022-11-29T17:06:21.259Z,15.95
2022-11-29T17:08:51.974Z,18.25
2022-11-29T17:11:21.131Z,15.15
2022-11-29T17:13:51.238Z,28.33
2022-11-29T17:16:22.210Z,44.30
2022-11-29T17:18:52.873Z,22.83
2022-11-29T17:21:25.751Z,18.42
2022-11-29T17:23:55.588Z,19.80
2022-11-29T17:26:25.432Z,18.65
2022-11-29T17:28:55.452Z,19.52
2022-11-29T17:31:25.621Z,26.38
2022-11-29T17:33:55.079Z,20.95
2022-11-29T17:36:25.500Z,19.40
2022-11-29T17:38:54.978Z,18.38
2022-11-29T17:41:26.068Z,20.20
2022-11-29T17:43:57.193Z,18.90
2022-11-29T17:46:27.891Z,27.45
2022-11-29T17:48:59.760Z,23.45
2022-11-29T17:54:20.957Z,24.05
2022-11-29T17:56:51.993Z,27.48
2022-11-29T17:59:21.454Z,23.73
2022-11-29T18:01:50.594Z,28.33
2022-11-29T18:04:20.213Z,22.67
2022-11-29T18:06:50.866Z,26.20
2022-11-29T18:09:20.653Z,24.42
2022-11-29T18:11:50.924Z,25.30
2022-11-29T18:14:23.951Z,25.70
2022-11-29T18:16:53.560Z,24.60
2022-11-29T18:19:24.572Z,21.90
2022-11-29T18:21:55.127Z,22.92
2022-11-29T18:24:24.491Z,21.35
2022-11-29T18:26:53.865Z,23.58
2022-11-29T18:29:23.929Z,22.85
2022-11-29T18:31:53.002Z,25.88
2022-11-29T18:34:22.472Z,23.75
2022-11-29T18:36:51.663Z,23.95
2022-11-29T18:39:24.984Z,21.95
2022-11-29T18:41:54.126Z,23.77
2022-11-29T18:44:29.127Z,16.17
2022-11-29T18:46:58.785Z,24.38
2022-11-29T18:49:28.207Z,24.08
2022-11-29T18:51:57.259Z,24.90
2022-11-29T18:54:29.262Z,21.75
2022-11-29T18:56:58.371Z,24.88
2022-11-29T18:59:27.662Z,24.63
2022-11-29T19:01:56.954Z,31.10
2022-11-29T19:04:26.326Z,22.73
2022-11-29T19:06:55.512Z,19.55
2022-11-29T19:09:25.394Z,21.58
2022-11-29T19:11:57.036Z,21.60
2022-11-29T19:14:26.546Z,19.73
2022-11-29T19:16:55.743Z,20.60
2022-11-29T19:19:25.098Z,21.95
2022-11-29T19:21:54.115Z,18.63
2022-11-29T19:24:23.536Z,21.80
2022-11-29T19:26:55.945Z,20.23
2022-11-29T19:29:25.415Z,21.67
2022-11-29T19:31:54.619Z,20.27
2022-11-29T19:34:23.930Z,20.30
2022-11-29T19:36:53.028Z,19.83
2022-11-29T19:39:22.355Z,18.88
2022-11-29T19:41:51.500Z,19.05
2022-11-29T19:44:27.981Z,21.25
2022-11-29T19:46:59.316Z,19.23
2022-11-29T19:49:28.761Z,21.23
2022-11-29T19:51:57.987Z,17.83
2022-11-29T19:54:27.417Z,17.45
2022-11-29T19:56:58.686Z,16.98
2022-11-29T19:59:29.420Z,18.60
2022-11-29T20:01:58.560Z,18.10
2022-11-29T20:04:28.032Z,21.33
2022-11-29T20:06:58.164Z,19.70
2022-11-29T20:09:29.313Z,19.40
2022-11-29T20:11:58.480Z,18.05
2022-11-29T20:14:29.304Z,17.48
2022-11-29T20:16:58.488Z,16.38
2022-11-29T20:19:27.949Z,18.25
2022-11-29T20:21:57.172Z,16.42
2022-11-29T20:24:26.696Z,17.40
2022-11-29T20:26:55.909Z,16.60
2022-11-29T20:29:30.432Z,16.48
2022-11-29T20:32:01.050Z,15.93
2022-11-29T20:34:30.731Z,16.15
2022-11-29T20:37:17.574Z,16.88
2022-11-29T20:39:52.434Z,15.82
2022-11-29T20:42:45.498Z,15.50
2022-11-29T20:45:16.360Z,16.75
2022-11-29T20:47:53.731Z,17.08
2022-11-29T20:50:25.116Z,17.95
2022-11-29T20:53:19.225Z,17.80
2022-11-29T20:55:50.079Z,16.35
2022-11-29T20:58:19.978Z,16.92
2022-11-29T21:00:49.357Z,16.35
2022-11-29T21:03:20.839Z,17.75
2022-11-29T21:05:51.134Z,15.77
2022-11-29T21:08:22.142Z,17.27
2022-11-29T21:10:51.905Z,15.70
2022-11-29T21:13:23.117Z,16.08
2022-11-29T21:15:53.043Z,16.27
2022-11-29T21:18:26.449Z,17.33
2022-11-29T21:21:06.212Z,17.38
2022-11-29T21:23:47.049Z,16.27
2022-11-29T21:26:21.718Z,16.38
2022-11-29T21:28:59.058Z,16.67
2022-11-29T21:31:29.033Z,19.00
2022-11-29T21:34:00.137Z,16.27
2022-11-29T21:36:30.007Z,19.85
2022-11-29T21:39:03.648Z,17.33
2022-11-29T21:41:34.786Z,18.42
2022-11-29T21:44:07.056Z,19.25
2022-11-29T21:46:37.810Z,18.67
2022-11-29T21:49:08.353Z,19.42
2022-11-29T21:51:37.729Z,17.55
2022-11-29T21:54:06.974Z,15.52
2022-11-29T21:56:36.430Z,17.90
2022-11-29T21:59:05.820Z,17.05
2022-11-29T22:01:35.316Z,15.77
2022-11-29T22:04:04.614Z,17.40
2022-11-29T22:06:36.851Z,15.90
2022-11-29T22:09:07.803Z,17.10
2022-11-29T22:11:37.171Z,15.05
2022-11-29T22:14:15.171Z,16.65
2022-11-29T22:16:46.715Z,16.50
2022-11-29T22:19:17.839Z,15.70
2022-11-29T22:21:51.054Z,16.38
2022-11-29T22:24:21.978Z,17.63
2022-11-29T22:26:52.467Z,16.45
2022-11-29T22:29:22.393Z,15.35
2022-11-29T22:31:53.975Z,15.55
2022-11-29T22:34:25.112Z,16.83
2022-11-29T22:36:56.694Z,15.00
2022-11-29T22:39:26.100Z,16.67
2022-11-29T22:41:55.536Z,16.52
2022-11-29T22:44:24.646Z,17.77
2022-11-29T22:46:54.156Z,17.38
2022-11-29T22:49:23.377Z,15.48
2022-11-29T22:51:53.463Z,16.23
2022-11-29T22:54:24.073Z,15.23
2022-11-29T22:56:53.517Z,17.17
2022-11-29T22:59:22.511Z,17.95
2022-11-29T23:01:52.070Z,17.52
2022-11-29T23:04:21.214Z,18.10
2022-11-29T23:06:50.644Z,17.70
2022-11-29T23:09:22.424Z,16.70
2022-11-29T23:11:56.899Z,18.67
2022-11-29T23:14:26.020Z,16.67
2022-11-29T23:16:55.482Z,15.63
2022-11-29T23:19:24.601Z,16.70
2022-11-29T23:21:56.234Z,15.82
2022-11-29T23:24:25.445Z,15.85
2022-11-29T23:26:56.306Z,14.52
2022-11-29T23:29:25.348Z,16.13
2022-11-29T23:31:54.688Z,16.13
2022-11-29T23:34:23.796Z,15.27
2022-11-29T23:36:53.428Z,16.35
2022-11-29T23:39:22.775Z,16.33
2022-11-29T23:41:52.203Z,15.82
2022-11-29T23:44:22.543Z,16.73
2022-11-29T23:46:51.888Z,17.48
2022-11-29T23:49:21.019Z,16.90
2022-11-29T23:51:50.421Z,16.65
2022-11-29T23:54:19.605Z,15.57
2022-11-29T23:56:48.912Z,15.02
2022-11-29T23:59:17.994Z,17.17
